Time;durP1;ratioP1;P1;durP2;ratioP2;P2;SDS_P1;SDS_P2;PMS_P1;PMS_P2;Temp;Humidity;BMP_temperature;BMP_pressure;BME280_temperature;BME280_humidity;BME280_pressure;Samples;Min_cycle;Max_cycle;Signal;HPM_P1;HPM_P2
2022/10/26 00:02:11;;;;;;;12.85;2.65;;;;;;;15.36;69.13;95094.53;5133686;27;20560;-73
2022/10/26 00:04:38;;;;;;;6.63;2.33;;;;;;;15.35;69.09;95092.94;5124493;27;20209;-74
2022/10/26 00:07:05;;;;;;;6.15;2.15;;;;;;;15.25;69.50;95087.97;5126720;27;20609;-74
2022/10/26 00:09:32;;;;;;;8.13;3.17;;;;;;;15.17;69.59;95097.09;5122817;27;20197;-74
2022/10/26 00:11:58;;;;;;;2.17;1.92;;;;;;;15.14;69.91;95095.06;5119144;27;20239;-74
2022/10/26 00:14:26;;;;;;;9.23;2.13;;;;;;;15.04;69.99;95092.78;5123017;27;20668;-74
2022/10/26 00:16:53;;;;;;;8.05;2.00;;;;;;;14.93;70.37;95090.53;5126002;27;20730;-74
2022/10/26 00:19:21;;;;;;;3.17;1.90;;;;;;;14.89;70.81;95102.50;5112369;28;20660;-74
2022/10/26 00:21:48;;;;;;;3.35;2.15;;;;;;;14.82;70.79;95092.13;5129801;27;20242;-74
2022/10/26 00:24:15;;;;;;;5.63;1.98;;;;;;;14.83;70.75;95090.22;5122730;27;20194;-74
2022/10/26 00:26:41;;;;;;;7.05;1.85;;;;;;;14.77;71.03;95088.84;5126362;27;20198;-74
2022/10/26 00:29:11;;;;;;;3.47;2.35;;;;;;;14.77;71.07;95097.81;5123900;27;20204;-74
2022/10/26 00:31:38;;;;;;;5.10;2.42;;;;;;;14.92;70.30;95097.13;5132957;27;20212;-74
2022/10/26 00:34:06;;;;;;;3.85;1.63;;;;;;;14.94;70.06;95099.50;5121288;27;20707;-74
2022/10/26 00:36:34;;;;;;;6.93;1.92;;;;;;;15.02;69.79;95101.34;5125670;27;20565;-75
2022/10/26 00:39:01;;;;;;;4.45;1.95;;;;;;;15.08;69.83;95099.94;5124544;27;20655;-75
2022/10/26 00:41:31;;;;;;;3.90;1.65;;;;;;;15.09;69.91;95096.06;5132155;27;20250;-74
2022/10/26 00:43:58;;;;;;;7.05;2.08;;;;;;;15.18;69.39;95098.66;5132987;27;20201;-73
2022/10/26 00:46:27;;;;;;;3.35;2.03;;;;;;;15.09;69.35;95098.81;5126510;27;20597;-74
2022/10/26 00:48:57;;;;;;;5.88;3.20;;;;;;;15.07;69.33;95092.88;5125378;27;20216;-74
2022/10/26 00:51:27;;;;;;;4.63;1.95;;;;;;;15.11;69.27;95093.81;5111858;28;20253;-74
2022/10/26 00:53:56;;;;;;;7.18;2.42;;;;;;;15.08;69.23;95094.47;5125905;27;20220;-74
2022/10/26 00:56:23;;;;;;;4.03;2.25;;;;;;;15.02;69.72;95090.41;5119853;27;20281;-73
2022/10/26 00:58:51;;;;;;;4.22;1.23;;;;;;;15.06;69.30;95085.03;5130961;27;20675;-74
2022/10/26 01:01:18;;;;;;;3.28;1.83;;;;;;;14.98;69.47;95088.72;5120128;27;20676;-74
2022/10/26 01:03:45;;;;;;;1.10;0.88;;;;;;;15.20;68.89;95082.75;5118160;27;20202;-73
2022/10/26 01:06:13;;;;;;;4.50;1.95;;;;;;;15.12;69.12;95078.22;5132271;27;20207;-73
2022/10/26 01:08:43;;;;;;;7.22;2.85;;;;;;;15.01;69.68;95088.03;5132077;27;20197;-74
2022/10/26 01:11:12;;;;;;;7.82;1.70;;;;;;;15.01;69.42;95085.31;5122520;27;20375;-75
2022/10/26 01:13:41;;;;;;;2.72;1.73;;;;;;;14.88;70.00;95073.63;5125035;27;20689;-75
2022/10/26 01:16:22;;;;;;;5.80;1.55;;;;;;;14.92;69.81;95075.28;5122342;27;20228;-75
2022/10/26 01:18:58;;;;;;;9.32;1.88;;;;;;;15.08;69.43;95071.84;5117993;27;20280;-73
2022/10/26 01:21:42;;;;;;;2.05;1.27;;;;;;;15.13;69.13;95068.91;5118059;27;20185;-72
2022/10/26 01:24:30;;;;;;;2.00;1.48;;;;;;;15.07;69.31;95076.53;5131779;27;20242;-72
2022/10/26 01:27:11;;;;;;;2.28;1.40;;;;;;;15.06;69.46;95071.41;5126259;27;20247;-76
2022/10/26 01:29:59;;;;;;;3.40;1.65;;;;;;;15.06;69.11;95082.31;5125800;27;20235;-75
2022/10/26 01:32:35;;;;;;;4.28;2.08;;;;;;;14.98;69.60;95085.97;5131953;27;20250;-74
2022/10/26 01:35:08;;;;;;;2.17;1.17;;;;;;;14.82;70.11;95081.22;5127322;27;20250;-76
2022/10/26 01:37:40;;;;;;;4.72;2.08;;;;;;;14.75;70.38;95081.03;5124316;27;20193;-75
2022/10/26 01:40:13;;;;;;;4.32;1.88;;;;;;;14.75;70.10;95074.78;5118348;27;20220;-74
2022/10/26 01:42:48;;;;;;;2.42;1.48;;;;;;;14.72;69.88;95076.25;5117341;27;20219;-75
2022/10/26 01:45:15;;;;;;;1.85;1.33;;;;;;;14.87;69.57;95067.38;5122422;27;20651;-76
2022/10/26 01:47:46;;;;;;;4.22;1.77;;;;;;;14.80;69.80;95067.13;5125172;27;20253;-75
2022/10/26 01:50:13;;;;;;;2.70;1.48;;;;;;;14.68;70.10;95061.69;5120581;27;20257;-75
2022/10/26 01:52:40;;;;;;;2.47;1.77;;;;;;;14.56;70.40;95062.50;5128375;27;20197;-74
2022/10/26 01:55:40;;;;;;;4.63;1.70;;;;;;;14.65;70.29;95059.66;5120424;27;20229;-75
2022/10/26 01:58:16;;;;;;;1.45;1.10;;;;;;;14.71;70.16;95063.75;5111179;28;20211;-75
2022/10/26 02:00:56;;;;;;;5.88;1.60;;;;;;;14.78;69.72;95058.50;5113254;27;20601;-74
2022/10/26 02:03:36;;;;;;;2.60;1.33;;;;;;;14.69;70.18;95060.56;5131672;27;20193;-74
2022/10/26 02:06:10;;;;;;;4.57;2.10;;;;;;;14.58;70.78;95064.91;5131471;27;20253;-75
2022/10/26 02:08:58;;;;;;;1.92;1.38;;;;;;;14.60;70.74;95068.09;5131591;27;20189;-75
2022/10/26 02:11:36;;;;;;;3.08;1.88;;;;;;;14.54;70.96;95069.44;5120224;27;20660;-75
2022/10/26 02:14:11;;;;;;;3.70;2.05;;;;;;;14.57;70.84;95061.38;5110756;28;20224;-75
2022/10/26 02:16:44;;;;;;;2.08;1.40;;;;;;;14.71;70.46;95063.75;5125499;28;20220;-75
2022/10/26 02:19:26;;;;;;;3.90;1.67;;;;;;;14.82;70.08;95070.31;5131697;28;20192;-74
2022/10/26 02:21:58;;;;;;;2.05;1.15;;;;;;;14.90;69.82;95071.31;5117238;28;20184;-75
2022/10/26 02:24:27;;;;;;;2.92;1.40;;;;;;;14.83;70.32;95071.91;5119211;28;20246;-74
2022/10/26 02:26:56;;;;;;;6.75;1.83;;;;;;;14.77;70.31;95073.28;5130100;28;20193;-74
2022/10/26 02:29:24;;;;;;;1.30;1.17;;;;;;;14.84;69.90;95073.50;5131445;28;20265;-75
2022/10/26 02:31:52;;;;;;;3.00;1.58;;;;;;;14.82;70.15;95073.03;5131289;28;20204;-74
2022/10/26 02:34:27;;;;;;;1.42;1.13;;;;;;;14.96;69.60;95069.97;5117964;28;20479;-74
2022/10/26 02:36:58;;;;;;;7.72;1.65;;;;;;;14.96;69.51;95075.41;5110537;28;20274;-75
2022/10/26 02:39:27;;;;;;;1.88;1.35;;;;;;;14.87;69.78;95075.56;5112068;28;20632;-74
2022/10/26 02:41:56;;;;;;;1.95;1.13;;;;;;;14.86;69.57;95076.69;5122519;28;20250;-75
2022/10/26 02:44:26;;;;;;;2.92;1.63;;;;;;;14.80;69.92;95071.78;5124369;28;20201;-75
2022/10/26 02:46:55;;;;;;;3.35;1.45;;;;;;;14.67;70.22;95068.28;5119784;28;20208;-74
2022/10/26 02:49:24;;;;;;;2.30;1.48;;;;;;;14.57;70.47;95075.00;5130957;28;20221;-74
2022/10/26 02:51:54;;;;;;;7.60;2.25;;;;;;;14.46;71.29;95084.00;5130341;28;20651;-73
2022/10/26 02:54:28;;;;;;;3.70;1.75;;;;;;;14.49;71.10;95077.84;5133362;27;20305;-73
2022/10/26 02:56:59;;;;;;;3.00;1.77;;;;;;;14.34;71.86;95081.22;5122594;27;20690;-74
2022/10/26 02:59:30;;;;;;;4.55;2.10;;;;;;;14.28;72.26;95077.13;5127928;27;20598;-73
2022/10/26 03:01:58;;;;;;;7.50;1.45;;;;;;;14.12;73.26;95085.16;5127062;27;20556;-74
2022/10/26 03:04:30;;;;;;;3.85;2.40;;;;;;;13.95;74.18;95088.06;5120928;27;20258;-73
2022/10/26 03:06:57;;;;;;;3.22;1.92;;;;;;;13.72;75.59;95082.25;5120524;27;20202;-74
2022/10/26 03:09:24;;;;;;;5.53;2.28;;;;;;;13.51;76.64;95093.19;5126645;27;20202;-75
2022/10/26 03:11:51;;;;;;;11.27;2.22;;;;;;;13.31;78.06;95099.44;5115305;27;21010;-73
2022/10/26 03:14:17;;;;;;;4.30;2.28;;;;;;;13.12;79.06;95113.47;5125270;27;20795;-73
2022/10/26 03:16:44;;;;;;;4.75;2.22;;;;;;;12.96;79.87;95109.75;5115527;27;20332;-73
2022/10/26 03:19:11;;;;;;;3.95;2.00;;;;;;;12.92;80.63;95115.06;5134345;27;20201;-74
2022/10/26 03:21:41;;;;;;;8.07;2.63;;;;;;;12.78;81.01;95120.75;5134134;27;20877;-74
2022/10/26 03:24:08;;;;;;;5.28;2.30;;;;;;;12.60;81.75;95124.66;5133606;27;20227;-73
2022/10/26 03:26:34;;;;;;;6.57;3.72;;;;;;;12.60;82.38;95130.13;5131191;27;20201;-74
2022/10/26 03:29:01;;;;;;;7.63;3.25;;;;;;;12.55;83.19;95132.22;5122522;27;20247;-73
2022/10/26 03:31:28;;;;;;;5.85;3.13;;;;;;;12.43;83.37;95135.66;5119247;27;20291;-74
2022/10/26 03:33:55;;;;;;;6.32;2.50;;;;;;;12.43;83.90;95130.22;5116152;27;20190;-73
2022/10/26 03:36:21;;;;;;;3.53;2.15;;;;;;;12.54;84.32;95130.63;5127188;27;20287;-73
2022/10/26 03:38:49;;;;;;;6.43;3.00;;;;;;;12.67;83.97;95118.75;5124273;27;20716;-73
2022/10/26 03:41:16;;;;;;;4.78;2.53;;;;;;;12.68;84.28;95132.00;5134129;27;20204;-74
2022/10/26 03:43:43;;;;;;;5.15;3.53;;;;;;;12.74;84.30;95133.41;5134191;27;20205;-75
2022/10/26 03:46:10;;;;;;;6.07;3.67;;;;;;;12.75;83.91;95131.47;5120106;27;20213;-75
2022/10/26 03:48:36;;;;;;;5.13;2.45;;;;;;;12.78;83.98;95131.63;5130738;27;20230;-74
2022/10/26 03:51:03;;;;;;;2.67;2.15;;;;;;;12.77;84.06;95130.03;5132287;27;20257;-73
2022/10/26 03:53:30;;;;;;;4.53;2.47;;;;;;;12.74;83.91;95124.44;5124860;27;20776;-75
2022/10/26 03:55:58;;;;;;;7.18;3.08;;;;;;;12.66;83.96;95131.53;5126250;27;20216;-75
2022/10/26 03:58:25;;;;;;;8.98;3.17;;;;;;;12.57;84.63;95135.44;5117960;27;20212;-73
2022/10/26 04:00:52;;;;;;;10.20;2.45;;;;;;;12.71;84.23;95131.31;5126445;27;20231;-74
2022/10/26 04:03:18;;;;;;;5.10;2.58;;;;;;;12.67;84.35;95130.41;5112627;28;20341;-74
2022/10/26 04:05:45;;;;;;;7.95;3.50;;;;;;;12.56;84.66;95128.41;5126062;27;20654;-75
2022/10/26 04:08:12;;;;;;;5.07;3.00;;;;;;;12.49;84.93;95134.31;5124763;27;20200;-72
2022/10/26 04:10:39;;;;;;;10.27;2.58;;;;;;;12.51;85.12;95134.81;5119473;27;20204;-75
2022/10/26 04:13:07;;;;;;;8.35;3.20;;;;;;;12.53;85.17;95138.00;5120414;27;20254;-73
2022/10/26 04:15:34;;;;;;;7.70;2.83;;;;;;;12.52;85.06;95138.31;5126100;27;20205;-74
2022/10/26 04:18:02;;;;;;;4.82;2.65;;;;;;;12.50;84.71;95135.13;5124653;27;20208;-72
2022/10/26 04:20:31;;;;;;;5.47;1.52;;;;;;;12.60;84.52;95140.97;5131650;27;20204;-73
2022/10/26 04:22:59;;;;;;;5.13;2.45;;;;;;;12.73;84.02;95145.38;5131746;27;20609;-73
2022/10/26 04:25:26;;;;;;;3.90;2.08;;;;;;;12.84;83.53;95134.97;5131003;27;20197;-74
2022/10/26 04:27:53;;;;;;;3.65;1.70;;;;;;;12.94;82.51;95128.31;5131784;27;20201;-73
2022/10/26 04:30:21;;;;;;;6.72;3.28;;;;;;;12.91;82.06;95134.41;5132617;27;20201;-74
2022/10/26 04:32:48;;;;;;;5.43;3.25;;;;;;;13.00;81.77;95132.44;5131820;27;20204;-75
2022/10/26 04:35:15;;;;;;;1.35;1.25;;;;;;;12.96;81.90;95129.59;5131592;27;20254;-72
2022/10/26 04:37:41;;;;;;;5.40;1.73;;;;;;;13.01;81.88;95136.75;5122109;27;20706;-75
2022/10/26 04:40:09;;;;;;;4.63;3.00;;;;;;;12.97;82.03;95138.56;5121774;27;20652;-72
2022/10/26 04:42:41;;;;;;;7.40;3.20;;;;;;;13.11;81.93;95137.19;5131532;27;20257;-76
2022/10/26 04:45:09;;;;;;;1.90;1.27;;;;;;;13.18;81.71;95138.59;5131287;27;20208;-75
2022/10/26 04:47:37;;;;;;;6.28;2.50;;;;;;;13.14;81.73;95138.41;5132532;27;20236;-75
2022/10/26 04:50:05;;;;;;;6.22;2.63;;;;;;;13.06;82.19;95142.00;5121637;27;20202;-77
2022/10/26 04:52:32;;;;;;;11.38;2.22;;;;;;;13.02;82.72;95146.50;5117713;27;20702;-77
2022/10/26 04:54:59;;;;;;;2.75;2.08;;;;;;;13.10;82.49;95153.81;5118086;27;20194;-74
2022/10/26 04:57:26;;;;;;;3.55;2.00;;;;;;;13.10;82.30;95153.81;5127315;27;20766;-75
2022/10/26 04:59:52;;;;;;;3.63;2.05;;;;;;;13.08;82.27;95158.78;5125917;27;20583;-76
2022/10/26 05:02:20;;;;;;;10.80;2.97;;;;;;;13.13;81.79;95155.88;5131434;27;20209;-76
2022/10/26 05:04:48;;;;;;;11.73;2.40;;;;;;;13.22;80.97;95156.66;5132233;27;20201;-74
2022/10/26 05:07:15;;;;;;;4.20;2.15;;;;;;;13.20;80.95;95161.63;5131426;27;20357;-77
2022/10/26 05:09:42;;;;;;;8.77;3.08;;;;;;;13.24;80.95;95159.03;5128433;27;20727;-74
2022/10/26 05:12:09;;;;;;;2.75;1.95;;;;;;;13.36;80.27;95161.84;5127463;27;20229;-73
2022/10/26 05:14:35;;;;;;;3.15;1.92;;;;;;;13.46;79.98;95166.88;5131181;27;20201;-74
2022/10/26 05:17:02;;;;;;;8.65;2.70;;;;;;;13.73;78.92;95154.63;5130657;27;20285;-74
2022/10/26 05:19:29;;;;;;;6.97;2.67;;;;;;;13.99;78.03;95143.47;5128206;27;20262;-74
2022/10/26 05:21:57;;;;;;;7.10;3.00;;;;;;;13.94;78.23;95149.16;5130189;27;20254;-74
2022/10/26 05:24:24;;;;;;;11.40;3.75;;;;;;;13.88;78.64;95145.84;5130935;27;20269;-75
2022/10/26 05:26:51;;;;;;;4.90;2.53;;;;;;;13.97;78.64;95149.25;5130397;27;20277;-75
2022/10/26 05:29:18;;;;;;;5.05;2.55;;;;;;;14.53;76.68;95146.91;5125805;27;20202;-74
2022/10/26 05:31:44;;;;;;;4.40;3.15;;;;;;;14.89;74.85;95151.59;5129336;27;20261;-75
2022/10/26 05:34:11;;;;;;;6.15;2.35;;;;;;;14.87;74.90;95160.13;5131152;27;20296;-73
2022/10/26 05:36:38;;;;;;;6.00;2.85;;;;;;;15.24;73.39;95162.81;5130167;27;20285;-74
2022/10/26 05:39:06;;;;;;;4.68;2.05;;;;;;;15.80;70.99;95162.91;5126729;27;20205;-78
2022/10/26 05:41:33;;;;;;;5.85;2.15;;;;;;;16.04;70.00;95172.94;5123480;27;20202;-77
2022/10/26 05:44:00;;;;;;;12.23;4.38;;;;;;;16.68;67.95;95169.97;5115412;27;20263;-75
2022/10/26 05:46:27;;;;;;;6.90;4.10;;;;;;;16.55;67.79;95169.22;5123099;27;20205;-73
2022/10/26 05:48:54;;;;;;;10.85;3.28;;;;;;;17.11;66.22;95171.78;5130653;27;20201;-79
2022/10/26 05:51:22;;;;;;;7.32;2.17;;;;;;;17.80;64.09;95174.91;5130216;27;20701;-74
2022/10/26 05:53:53;;;;;;;3.22;1.98;;;;;;;16.97;66.20;95190.63;5130219;27;20216;-74
2022/10/26 05:56:34;;;;;;;6.05;2.85;;;;;;;17.31;65.22;95180.88;5130865;27;20234;-76
2022/10/26 05:59:01;;;;;;;3.88;2.78;;;;;;;18.03;63.50;95190.31;5129773;27;20401;-75
2022/10/26 06:01:40;;;;;;;3.67;2.30;;;;;;;18.63;61.56;95184.38;5130795;27;20204;-75
2022/10/26 06:04:21;;;;;;;8.15;2.88;;;;;;;18.90;60.85;95175.06;5117998;27;20254;-74
2022/10/26 06:06:52;;;;;;;3.45;1.90;;;;;;;18.78;60.71;95176.03;5130459;27;20674;-78
2022/10/26 06:09:20;;;;;;;8.18;2.80;;;;;;;19.27;59.53;95188.22;5110307;28;20307;-78
2022/10/26 06:11:49;;;;;;;6.93;4.25;;;;;;;19.29;59.00;95191.34;5123845;27;20657;-75
2022/10/26 06:14:16;;;;;;;13.05;4.50;;;;;;;19.13;59.33;95186.81;5131124;27;20245;-75
2022/10/26 06:16:56;;;;;;;9.05;4.10;;;;;;;19.38;58.71;95197.41;5130711;28;20229;-75
2022/10/26 06:19:40;;;;;;;4.30;2.75;;;;;;;19.06;59.28;95186.69;5130706;28;20250;-74
2022/10/26 06:22:20;;;;;;;6.50;3.30;;;;;;;19.05;59.56;95190.59;5129862;28;20589;-74
2022/10/26 06:24:57;;;;;;;6.78;2.67;;;;;;;18.34;61.60;95196.75;5129947;28;20192;-71
2022/10/26 06:27:34;;;;;;;5.80;2.70;;;;;;;18.14;62.44;95201.47;5131660;27;20208;-73
2022/10/26 06:30:03;;;;;;;3.70;2.38;;;;;;;17.87;62.82;95202.47;5133818;27;20613;-73
2022/10/26 06:32:30;;;;;;;13.48;4.95;;;;;;;17.68;63.80;95206.78;5134731;27;20211;-76
2022/10/26 06:35:09;;;;;;;11.32;4.28;;;;;;;17.96;63.35;95211.28;5134893;27;20275;-77
2022/10/26 06:37:37;;;;;;;10.85;4.10;;;;;;;17.81;63.54;95209.38;5120694;27;20213;-77
2022/10/26 06:40:06;;;;;;;7.50;4.07;;;;;;;17.08;65.80;95210.06;5120244;27;20656;-74
2022/10/26 06:42:35;;;;;;;7.10;4.00;;;;;;;16.77;66.67;95206.19;5131123;27;20261;-74
2022/10/26 06:45:02;;;;;;;10.07;4.68;;;;;;;16.66;67.17;95199.63;5125127;27;20205;-77
2022/10/26 06:47:37;;;;;;;4.80;2.60;;;;;;;16.71;67.60;95207.56;5124769;27;20193;-75
2022/10/26 06:50:12;;;;;;;4.88;2.60;;;;;;;16.39;68.72;95211.41;5128387;27;20281;-76
2022/10/26 06:52:44;;;;;;;3.22;2.17;;;;;;;16.09;69.61;95213.69;5131042;27;20284;-74
2022/10/26 06:55:14;;;;;;;7.57;2.13;;;;;;;16.06;69.96;95220.66;5130551;27;20198;-75
2022/10/26 06:57:44;;;;;;;3.90;2.25;;;;;;;16.08;70.28;95229.28;5128854;27;20293;-74
2022/10/26 07:00:18;;;;;;;2.33;1.55;;;;;;;15.75;70.71;95231.44;5129717;27;20247;-74
2022/10/26 07:02:45;;;;;;;4.63;2.03;;;;;;;15.79;70.72;95232.34;5119556;27;20196;-74
2022/10/26 07:05:12;;;;;;;8.32;3.92;;;;;;;16.03;70.63;95221.34;5129843;27;20289;-77
2022/10/26 07:07:42;;;;;;;12.52;2.47;;;;;;;15.95;70.28;95236.75;5126987;27;20193;-79
2022/10/26 07:10:09;;;;;;;4.95;2.33;;;;;;;16.06;70.42;95247.97;5120751;27;20740;-77
2022/10/26 07:12:36;;;;;;;7.03;4.22;;;;;;;15.95;70.55;95246.88;5133844;27;20229;-72
2022/10/26 07:15:07;;;;;;;8.18;4.00;;;;;;;16.00;70.46;95243.88;5128941;27;20198;-76
2022/10/26 07:17:42;;;;;;;4.55;2.20;;;;;;;16.06;70.23;95242.50;5124771;27;20213;-70
2022/10/26 07:20:10;;;;;;;3.95;2.10;;;;;;;16.11;70.12;95234.06;5134008;27;20667;-74
2022/10/26 07:22:36;;;;;;;7.20;3.03;;;;;;;16.07;70.17;95230.44;5133781;27;20605;-74
2022/10/26 07:25:04;;;;;;;8.45;2.58;;;;;;;16.29;69.37;95240.81;5133987;27;20288;-73
2022/10/26 07:27:30;;;;;;;6.80;2.90;;;;;;;16.30;69.50;95231.47;5133549;27;20204;-73
2022/10/26 07:29:57;;;;;;;6.72;2.08;;;;;;;16.39;69.29;95241.47;5133633;27;20201;-73
2022/10/26 07:32:25;;;;;;;6.68;2.65;;;;;;;16.29;69.29;95227.16;5133173;27;20197;-77
2022/10/26 07:34:52;;;;;;;6.00;3.45;;;;;;;16.43;68.96;95229.47;5132938;27;20205;-75
2022/10/26 07:37:19;;;;;;;5.22;2.08;;;;;;;16.43;68.91;95229.47;5133875;27;20232;-76
2022/10/26 07:39:45;;;;;;;3.60;2.25;;;;;;;16.30;69.08;95230.69;5131864;27;20742;-74
2022/10/26 07:42:12;;;;;;;4.45;2.80;;;;;;;16.35;68.76;95233.16;5132684;27;20270;-75
2022/10/26 07:44:39;;;;;;;4.90;2.50;;;;;;;16.53;68.29;95219.97;5133228;27;20205;-74
2022/10/26 07:47:06;;;;;;;7.60;2.00;;;;;;;16.74;67.36;95228.75;5125628;27;20691;-77
2022/10/26 07:49:34;;;;;;;5.55;2.38;;;;;;;16.67;67.58;95228.59;5126732;27;20589;-77
2022/10/26 07:52:01;;;;;;;4.43;2.65;;;;;;;16.73;67.33;95220.91;5116677;27;20608;-78
2022/10/26 07:54:27;;;;;;;4.18;2.33;;;;;;;16.84;67.28;95217.28;5118682;27;20759;-77
2022/10/26 07:56:54;;;;;;;4.95;2.42;;;;;;;17.03;66.98;95220.13;5132926;27;20205;-78
2022/10/26 07:59:21;;;;;;;9.15;3.55;;;;;;;17.28;65.90;95211.69;5132873;27;20620;-78
2022/10/26 08:01:48;;;;;;;7.35;3.40;;;;;;;17.13;65.87;95212.50;5132771;27;20204;-77
2022/10/26 08:04:14;;;;;;;2.58;1.88;;;;;;;17.15;64.66;95221.16;5132482;27;20639;-80
2022/10/26 08:06:43;;;;;;;11.63;2.40;;;;;;;17.31;64.56;95213.72;5132989;27;20204;-77
2022/10/26 08:09:09;;;;;;;6.57;2.97;;;;;;;17.57;63.91;95213.94;5133023;27;20201;-77
2022/10/26 08:11:36;;;;;;;6.32;3.40;;;;;;;17.55;63.95;95218.97;5132780;27;20233;-78
2022/10/26 08:14:04;;;;;;;5.00;3.45;;;;;;;17.67;63.42;95218.88;5132747;27;20213;-78
2022/10/26 08:16:31;;;;;;;4.05;2.92;;;;;;;17.65;64.19;95229.41;5129189;27;20551;-79
2022/10/26 08:18:58;;;;;;;5.13;3.55;;;;;;;17.41;64.36;95216.72;5119248;27;20667;-79
2022/10/26 08:21:24;;;;;;;6.28;3.00;;;;;;;17.53;64.03;95210.31;5129075;27;20585;-79
2022/10/26 08:23:53;;;;;;;5.30;3.13;;;;;;;17.65;64.16;95220.41;5129016;27;20257;-79
2022/10/26 08:26:20;;;;;;;5.47;3.10;;;;;;;17.98;63.04;95220.72;5132093;27;20270;-79
2022/10/26 08:28:49;;;;;;;4.75;3.10;;;;;;;18.17;62.97;95219.97;5119296;27;20198;-79
2022/10/26 08:31:16;;;;;;;6.05;3.67;;;;;;;18.15;63.11;95216.78;5127135;27;20570;-79
2022/10/26 08:33:43;;;;;;;9.60;3.70;;;;;;;17.96;63.61;95211.28;5131617;27;20216;-79
2022/10/26 08:36:11;;;;;;;5.38;3.00;;;;;;;17.91;62.94;95214.28;5132128;27;20201;-79
2022/10/26 08:38:38;;;;;;;4.80;3.15;;;;;;;17.88;63.65;95215.03;5124220;27;20221;-79
2022/10/26 08:41:10;;;;;;;8.07;3.40;;;;;;;18.03;63.50;95216.94;5132301;27;20257;-79
2022/10/26 08:43:41;;;;;;;7.95;3.60;;;;;;;18.17;62.76;95217.22;5132463;27;20204;-79
2022/10/26 08:46:14;;;;;;;4.53;3.08;;;;;;;17.99;62.30;95210.56;5131627;27;20197;-77
2022/10/26 08:48:44;;;;;;;4.10;3.28;;;;;;;17.96;62.99;95214.81;5117625;27;20205;-78
2022/10/26 08:51:17;;;;;;;8.77;3.60;;;;;;;18.18;61.50;95213.28;5130102;27;20249;-80
2022/10/26 08:53:50;;;;;;;9.68;3.58;;;;;;;18.47;62.10;95204.47;5132219;27;20592;-79
2022/10/26 08:56:23;;;;;;;5.50;3.03;;;;;;;18.66;60.35;95211.09;5131791;27;20201;-80
2022/10/26 08:58:55;;;;;;;6.10;3.03;;;;;;;18.69;59.78;95215.88;5120199;27;20311;-78
2022/10/26 09:01:23;;;;;;;5.85;2.88;;;;;;;18.57;59.21;95213.28;5131541;27;20201;-79
2022/10/26 09:03:50;;;;;;;5.65;2.75;;;;;;;18.69;58.57;95215.88;5131432;27;20258;-79
2022/10/26 09:06:23;;;;;;;6.20;2.92;;;;;;;18.75;59.20;95208.91;5130365;27;20233;-79
2022/10/26 09:08:59;;;;;;;6.75;2.85;;;;;;;18.70;59.32;95211.97;5126973;27;20506;-78
2022/10/26 09:11:40;;;;;;;3.28;2.70;;;;;;;18.88;59.13;95218.56;5131674;27;20229;-78
2022/10/26 09:14:15;;;;;;;8.95;2.45;;;;;;;18.68;58.66;95208.78;5118571;27;20237;-78
2022/10/26 09:16:57;;;;;;;4.10;2.72;;;;;;;18.62;58.76;95210.25;5129748;27;20200;-79
2022/10/26 09:19:42;;;;;;;4.90;2.65;;;;;;;18.64;59.68;95207.94;5127969;27;20702;-78
2022/10/26 09:22:17;;;;;;;4.03;2.35;;;;;;;19.15;57.28;95206.44;5131010;27;20544;-78
2022/10/26 09:24:52;;;;;;;6.20;2.33;;;;;;;19.36;56.89;95205.22;5131453;27;20724;-79
2022/10/26 09:27:26;;;;;;;6.78;2.63;;;;;;;19.39;56.01;95204.50;5123799;27;20189;-78
2022/10/26 09:29:55;;;;;;;2.88;2.00;;;;;;;19.51;55.05;95207.06;5115101;27;20566;-77
2022/10/26 09:32:26;;;;;;;5.07;1.90;;;;;;;19.66;51.84;95197.84;5130503;27;20281;-80
2022/10/26 09:34:57;;;;;;;1.67;1.30;;;;;;;19.74;52.13;95207.78;5129908;27;20261;-77
2022/10/26 09:37:28;;;;;;;7.50;2.47;;;;;;;19.52;54.74;95203.16;5127972;27;20205;-78
2022/10/26 09:40:05;;;;;;;4.32;2.33;;;;;;;19.64;55.16;95211.16;5119622;27;20198;-79
2022/10/26 09:42:39;;;;;;;6.68;2.72;;;;;;;19.70;55.25;95201.41;5130229;27;20608;-79
2022/10/26 09:45:15;;;;;;;4.65;2.53;;;;;;;20.13;54.64;95199.22;5130537;27;20196;-79
2022/10/26 09:47:46;;;;;;;3.88;2.30;;;;;;;19.73;54.26;95192.44;5121090;27;20689;-79
2022/10/26 09:50:20;;;;;;;5.20;2.45;;;;;;;19.59;55.30;95191.44;5128886;27;20189;-79
2022/10/26 09:52:47;;;;;;;3.80;2.38;;;;;;;19.53;55.07;95188.25;5129958;27;20417;-78
2022/10/26 09:55:14;;;;;;;5.95;2.58;;;;;;;19.59;54.49;95192.22;5130208;27;20209;-79
2022/10/26 09:57:46;;;;;;;6.93;2.53;;;;;;;19.77;55.02;95187.78;5126092;27;20224;-78
2022/10/26 10:00:15;;;;;;;3.60;1.80;;;;;;;19.74;53.10;95188.53;5128984;27;20201;-78
2022/10/26 10:02:44;;;;;;;5.72;1.95;;;;;;;19.94;52.28;95180.16;5111459;27;20312;-79
2022/10/26 10:05:25;;;;;;;3.92;1.35;;;;;;;19.78;49.67;95172.88;5129626;27;20201;-75
2022/10/26 10:07:52;;;;;;;2.30;1.48;;;;;;;19.58;50.93;95176.91;5126183;27;20287;-81
2022/10/26 10:10:21;;;;;;;3.55;1.65;;;;;;;19.54;52.35;95176.09;5129702;27;20254;-78
2022/10/26 10:12:51;;;;;;;2.67;1.83;;;;;;;19.60;52.26;95182.81;5129805;27;20232;-78
2022/10/26 10:15:22;;;;;;;6.07;1.98;;;;;;;20.01;51.11;95170.00;5129973;27;20224;-79
2022/10/26 10:17:50;;;;;;;2.42;1.65;;;;;;;20.06;50.99;95166.16;5125324;28;20267;-79
2022/10/26 10:20:22;;;;;;;5.18;1.60;;;;;;;20.25;50.76;95163.22;5128536;28;20533;-77
2022/10/26 10:22:57;;;;;;;3.38;1.60;;;;;;;19.84;50.60;95165.88;5129701;28;20588;-79
2022/10/26 10:25:33;;;;;;;2.47;1.40;;;;;;;19.87;50.45;95159.63;5116329;28;20651;-79
2022/10/26 10:28:01;;;;;;;3.92;1.70;;;;;;;19.71;51.00;95166.47;5119010;28;20281;-79
2022/10/26 10:30:31;;;;;;;2.50;1.70;;;;;;;19.99;51.20;95160.53;5118648;28;20254;-79
2022/10/26 10:33:10;;;;;;;3.30;1.77;;;;;;;20.04;50.40;95163.78;5115590;28;20284;-77
2022/10/26 10:35:46;;;;;;;3.80;1.90;;;;;;;20.13;50.35;95156.00;5129391;28;20197;-79
2022/10/26 10:38:17;;;;;;;3.88;1.58;;;;;;;20.23;50.53;95149.03;5118174;28;20361;-78
2022/10/26 10:40:50;;;;;;;6.03;1.45;;;;;;;20.42;50.74;95143.38;5129744;28;20204;-79
2022/10/26 10:43:19;;;;;;;2.58;1.90;;;;;;;20.41;50.57;95147.31;5125759;28;20226;-79
2022/10/26 10:45:48;;;;;;;2.78;1.77;;;;;;;20.64;49.93;95146.38;5128739;28;20200;-79
2022/10/26 10:48:19;;;;;;;4.82;1.88;;;;;;;20.96;48.81;95141.91;5121286;28;20246;-79
2022/10/26 10:50:55;;;;;;;2.90;1.70;;;;;;;21.15;49.00;95135.38;5124401;28;20544;-79
2022/10/26 10:53:26;;;;;;;2.90;1.50;;;;;;;20.83;48.99;95143.38;5128778;28;20220;-78
2022/10/26 10:56:12;;;;;;;3.13;1.90;;;;;;;21.05;48.34;95138.81;5129098;28;20233;-79
2022/10/26 10:58:48;;;;;;;2.78;1.80;;;;;;;21.35;48.79;95133.16;5122292;28;20868;-78
2022/10/26 11:01:22;;;;;;;4.00;1.73;;;;;;;21.63;48.42;95127.81;5117538;28;20555;-79
2022/10/26 11:04:21;;;;;;;5.35;2.45;;;;;;;21.66;48.34;95129.81;5128722;28;20201;-81
2022/10/26 11:06:49;;;;;;;2.97;1.92;;;;;;;21.66;48.75;95124.28;5127063;28;20228;-80
2022/10/26 11:09:19;;;;;;;3.40;1.80;;;;;;;21.54;48.42;95121.88;5126112;28;20668;-79
2022/10/26 11:11:53;;;;;;;7.20;2.08;;;;;;;21.39;48.81;95114.69;5129188;28;20277;-79
2022/10/26 11:14:26;;;;;;;3.60;1.85;;;;;;;21.50;49.22;95110.03;5130222;27;20257;-79
2022/10/26 11:16:59;;;;;;;3.95;1.95;;;;;;;20.87;49.81;95124.91;5131346;27;20605;-78
2022/10/26 11:19:30;;;;;;;3.55;1.65;;;;;;;20.76;49.98;95118.53;5129527;27;20253;-78
2022/10/26 11:21:57;;;;;;;6.63;1.92;;;;;;;20.99;49.68;95119.13;5127803;27;20205;-79
2022/10/26 11:24:29;;;;;;;3.45;1.75;;;;;;;21.04;49.55;95121.53;5124094;27;20265;-80
2022/10/26 11:27:00;;;;;;;7.82;1.90;;;;;;;20.88;49.67;95118.25;5130114;27;20246;-79
2022/10/26 11:29:36;;;;;;;3.85;1.98;;;;;;;20.99;49.86;95123.84;5129626;27;20205;-80
2022/10/26 11:32:11;;;;;;;2.25;1.70;;;;;;;20.82;49.82;95120.53;5133201;27;20651;-78
2022/10/26 11:34:44;;;;;;;4.28;2.00;;;;;;;21.17;49.39;95117.28;5132454;27;20204;-80
2022/10/26 11:37:18;;;;;;;3.58;1.95;;;;;;;21.21;48.86;95109.06;5128953;27;20672;-80
2022/10/26 11:39:46;;;;;;;5.50;1.70;;;;;;;21.52;48.42;95113.19;5124200;27;20228;-79
2022/10/26 11:42:27;;;;;;;3.65;1.75;;;;;;;21.28;47.76;95104.41;5124245;27;20205;-79
2022/10/26 11:45:03;;;;;;;2.15;1.45;;;;;;;21.21;47.67;95104.34;5126980;27;20628;-79
2022/10/26 11:47:38;;;;;;;2.47;1.50;;;;;;;21.33;47.24;95094.16;5118094;27;20218;-78
2022/10/26 11:50:16;;;;;;;1.73;1.08;;;;;;;21.39;46.41;95103.66;5120400;27;20191;-79